sensor_id;sensor_type;location;lat;lon;timestamp;P1;durP1;ratioP1;P2;durP2;ratioP2
2404;SDS011;1213;43.206;27.922;2023-08-20T00:00:02;7.20;;;6.50;;
2404;SDS011;1213;43.206;27.922;2023-08-20T00:02:29;9.27;;;8.30;;
2404;SDS011;1213;43.206;27.922;2023-08-20T00:04:56;8.67;;;7.80;;
2404;SDS011;1213;43.206;27.922;2023-08-20T00:07:22;8.27;;;7.47;;
2404;SDS011;1213;43.206;27.922;2023-08-20T00:09:47;7.87;;;7.17;;
2404;SDS011;1213;43.206;27.922;2023-08-20T00:12:13;8.23;;;7.20;;
2404;SDS011;1213;43.206;27.922;2023-08-20T00:14:55;9.50;;;7.80;;
2404;SDS011;1213;43.206;27.922;2023-08-20T00:17:21;7.67;;;6.97;;
2404;SDS011;1213;43.206;27.922;2023-08-20T00:19:47;8.30;;;7.50;;
2404;SDS011;1213;43.206;27.922;2023-08-20T00:22:12;9.20;;;8.30;;
2404;SDS011;1213;43.206;27.922;2023-08-20T00:24:38;9.07;;;8.10;;
2404;SDS011;1213;43.206;27.922;2023-08-20T00:27:03;12.13;;;7.60;;
2404;SDS011;1213;43.206;27.922;2023-08-20T00:29:29;8.63;;;7.73;;
2404;SDS011;1213;43.206;27.922;2023-08-20T00:31:54;9.73;;;7.93;;
2404;SDS011;1213;43.206;27.922;2023-08-20T00:34:19;8.70;;;7.70;;
2404;SDS011;1213;43.206;27.922;2023-08-20T00:36:44;8.83;;;7.80;;
2404;SDS011;1213;43.206;27.922;2023-08-20T00:39:11;7.90;;;7.20;;
2404;SDS011;1213;43.206;27.922;2023-08-20T00:41:36;8.30;;;7.53;;
2404;SDS011;1213;43.206;27.922;2023-08-20T00:44:01;9.23;;;7.37;;
2404;SDS011;1213;43.206;27.922;2023-08-20T00:46:26;12.10;;;7.80;;
2404;SDS011;1213;43.206;27.922;2023-08-20T00:48:52;8.47;;;7.53;;
2404;SDS011;1213;43.206;27.922;2023-08-20T00:51:17;9.27;;;8.30;;
2404;SDS011;1213;43.206;27.922;2023-08-20T00:53:42;9.63;;;7.77;;
2404;SDS011;1213;43.206;27.922;2023-08-20T00:56:08;11.37;;;8.83;;
2404;SDS011;1213;43.206;27.922;2023-08-20T00:58:33;8.97;;;7.67;;
2404;SDS011;1213;43.206;27.922;2023-08-20T01:00:58;8.07;;;7.37;;
2404;SDS011;1213;43.206;27.922;2023-08-20T01:03:24;11.73;;;8.50;;
2404;SDS011;1213;43.206;27.922;2023-08-20T01:05:50;8.30;;;7.50;;
2404;SDS011;1213;43.206;27.922;2023-08-20T01:08:37;9.23;;;8.40;;
2404;SDS011;1213;43.206;27.922;2023-08-20T01:13:30;10.40;;;8.40;;
2404;SDS011;1213;43.206;27.922;2023-08-20T01:15:56;8.57;;;7.33;;
2404;SDS011;1213;43.206;27.922;2023-08-20T01:18:21;9.23;;;7.70;;
2404;SDS011;1213;43.206;27.922;2023-08-20T01:20:47;9.77;;;7.77;;
2404;SDS011;1213;43.206;27.922;2023-08-20T01:30:50;8.20;;;7.40;;
2404;SDS011;1213;43.206;27.922;2023-08-20T01:33:17;10.40;;;7.87;;
2404;SDS011;1213;43.206;27.922;2023-08-20T01:35:42;7.90;;;7.20;;
2404;SDS011;1213;43.206;27.922;2023-08-20T01:38:08;8.70;;;7.67;;
2404;SDS011;1213;43.206;27.922;2023-08-20T01:40:33;8.20;;;7.40;;
2404;SDS011;1213;43.206;27.922;2023-08-20T01:42:59;8.47;;;7.67;;
2404;SDS011;1213;43.206;27.922;2023-08-20T01:45:24;9.77;;;7.70;;
2404;SDS011;1213;43.206;27.922;2023-08-20T01:47:49;7.87;;;7.07;;
2404;SDS011;1213;43.206;27.922;2023-08-20T01:50:14;9.80;;;7.33;;
2404;SDS011;1213;43.206;27.922;2023-08-20T01:52:40;9.67;;;8.30;;
2404;SDS011;1213;43.206;27.922;2023-08-20T01:55:05;8.63;;;7.77;;
2404;SDS011;1213;43.206;27.922;2023-08-20T01:57:30;8.37;;;7.57;;
2404;SDS011;1213;43.206;27.922;2023-08-20T01:59:56;13.50;;;8.13;;
2404;SDS011;1213;43.206;27.922;2023-08-20T02:02:22;8.13;;;7.20;;
2404;SDS011;1213;43.206;27.922;2023-08-20T02:04:48;9.17;;;8.27;;
2404;SDS011;1213;43.206;27.922;2023-08-20T02:07:13;10.33;;;9.23;;
2404;SDS011;1213;43.206;27.922;2023-08-20T02:09:38;11.27;;;9.27;;
2404;SDS011;1213;43.206;27.922;2023-08-20T02:12:04;10.60;;;8.40;;
2404;SDS011;1213;43.206;27.922;2023-08-20T02:14:29;11.93;;;10.37;;
2404;SDS011;1213;43.206;27.922;2023-08-20T02:16:54;9.83;;;8.83;;
2404;SDS011;1213;43.206;27.922;2023-08-20T02:19:20;12.67;;;8.57;;
2404;SDS011;1213;43.206;27.922;2023-08-20T02:21:45;10.07;;;8.00;;
2404;SDS011;1213;43.206;27.922;2023-08-20T02:24:10;17.10;;;8.93;;
2404;SDS011;1213;43.206;27.922;2023-08-20T02:26:36;10.97;;;9.20;;
2404;SDS011;1213;43.206;27.922;2023-08-20T02:29:01;15.60;;;9.70;;
2404;SDS011;1213;43.206;27.922;2023-08-20T02:31:27;10.43;;;9.03;;
2404;SDS011;1213;43.206;27.922;2023-08-20T02:33:52;9.70;;;8.40;;
2404;SDS011;1213;43.206;27.922;2023-08-20T02:36:18;16.27;;;13.00;;
2404;SDS011;1213;43.206;27.922;2023-08-20T02:38:44;23.70;;;14.10;;
2404;SDS011;1213;43.206;27.922;2023-08-20T02:41:09;22.87;;;14.90;;
2404;SDS011;1213;43.206;27.922;2023-08-20T02:43:35;23.50;;;13.60;;
2404;SDS011;1213;43.206;27.922;2023-08-20T02:46:00;17.97;;;13.90;;
2404;SDS011;1213;43.206;27.922;2023-08-20T02:48:25;18.53;;;14.17;;
2404;SDS011;1213;43.206;27.922;2023-08-20T02:50:55;21.90;;;14.10;;
2404;SDS011;1213;43.206;27.922;2023-08-20T02:53:21;20.90;;;15.30;;
2404;SDS011;1213;43.206;27.922;2023-08-20T02:55:46;21.20;;;14.20;;
2404;SDS011;1213;43.206;27.922;2023-08-20T02:58:11;22.53;;;14.27;;
2404;SDS011;1213;43.206;27.922;2023-08-20T03:00:37;24.27;;;14.60;;
2404;SDS011;1213;43.206;27.922;2023-08-20T03:03:03;16.03;;;13.80;;
2404;SDS011;1213;43.206;27.922;2023-08-20T03:05:31;18.00;;;14.43;;
2404;SDS011;1213;43.206;27.922;2023-08-20T03:07:56;22.23;;;15.20;;
2404;SDS011;1213;43.206;27.922;2023-08-20T03:10:21;22.20;;;16.10;;
2404;SDS011;1213;43.206;27.922;2023-08-20T03:12:47;21.30;;;16.17;;
2404;SDS011;1213;43.206;27.922;2023-08-20T03:15:12;23.83;;;17.77;;
2404;SDS011;1213;43.206;27.922;2023-08-20T03:17:37;24.20;;;16.87;;
2404;SDS011;1213;43.206;27.922;2023-08-20T03:20:03;22.43;;;17.10;;
2404;SDS011;1213;43.206;27.922;2023-08-20T03:22:31;24.37;;;18.30;;
2404;SDS011;1213;43.206;27.922;2023-08-20T03:24:56;25.80;;;17.30;;
2404;SDS011;1213;43.206;27.922;2023-08-20T03:27:21;23.23;;;18.17;;
2404;SDS011;1213;43.206;27.922;2023-08-20T03:29:47;30.20;;;19.47;;
2404;SDS011;1213;43.206;27.922;2023-08-20T03:32:12;24.87;;;19.40;;
2404;SDS011;1213;43.206;27.922;2023-08-20T03:34:37;25.63;;;19.23;;
2404;SDS011;1213;43.206;27.922;2023-08-20T03:37:03;26.93;;;18.43;;
2404;SDS011;1213;43.206;27.922;2023-08-20T03:39:28;24.23;;;18.50;;
2404;SDS011;1213;43.206;27.922;2023-08-20T03:41:54;31.23;;;19.30;;
2404;SDS011;1213;43.206;27.922;2023-08-20T03:44:19;29.97;;;18.77;;
2404;SDS011;1213;43.206;27.922;2023-08-20T03:46:45;27.40;;;19.60;;
2404;SDS011;1213;43.206;27.922;2023-08-20T03:49:10;25.87;;;20.40;;
2404;SDS011;1213;43.206;27.922;2023-08-20T03:51:35;29.27;;;19.20;;
2404;SDS011;1213;43.206;27.922;2023-08-20T03:54:01;28.70;;;20.27;;
2404;SDS011;1213;43.206;27.922;2023-08-20T03:56:26;33.10;;;20.00;;
2404;SDS011;1213;43.206;27.922;2023-08-20T03:58:51;35.00;;;18.97;;
2404;SDS011;1213;43.206;27.922;2023-08-20T04:01:17;28.17;;;18.70;;
2404;SDS011;1213;43.206;27.922;2023-08-20T04:03:43;26.70;;;19.07;;
2404;SDS011;1213;43.206;27.922;2023-08-20T04:06:08;27.87;;;19.00;;
2404;SDS011;1213;43.206;27.922;2023-08-20T04:08:34;24.13;;;17.33;;
2404;SDS011;1213;43.206;27.922;2023-08-20T04:10:59;24.63;;;19.87;;
2404;SDS011;1213;43.206;27.922;2023-08-20T04:13:24;28.57;;;19.60;;
2404;SDS011;1213;43.206;27.922;2023-08-20T04:15:50;25.03;;;17.90;;
2404;SDS011;1213;43.206;27.922;2023-08-20T04:18:16;32.23;;;20.17;;
2404;SDS011;1213;43.206;27.922;2023-08-20T04:20:42;30.27;;;19.10;;
2404;SDS011;1213;43.206;27.922;2023-08-20T04:23:07;22.73;;;18.10;;
2404;SDS011;1213;43.206;27.922;2023-08-20T04:25:32;29.40;;;18.33;;
2404;SDS011;1213;43.206;27.922;2023-08-20T04:27:57;22.97;;;17.00;;
2404;SDS011;1213;43.206;27.922;2023-08-20T04:30:23;29.10;;;18.03;;
2404;SDS011;1213;43.206;27.922;2023-08-20T04:32:48;26.87;;;19.67;;
2404;SDS011;1213;43.206;27.922;2023-08-20T04:35:13;34.90;;;21.70;;
2404;SDS011;1213;43.206;27.922;2023-08-20T04:37:39;28.77;;;20.90;;
2404;SDS011;1213;43.206;27.922;2023-08-20T04:40:04;26.03;;;19.27;;
2404;SDS011;1213;43.206;27.922;2023-08-20T04:42:30;21.83;;;18.83;;
2404;SDS011;1213;43.206;27.922;2023-08-20T04:44:55;30.80;;;20.90;;
2404;SDS011;1213;43.206;27.922;2023-08-20T04:47:21;29.87;;;18.90;;
2404;SDS011;1213;43.206;27.922;2023-08-20T04:49:46;21.20;;;17.10;;
2404;SDS011;1213;43.206;27.922;2023-08-20T04:52:11;21.10;;;17.47;;
2404;SDS011;1213;43.206;27.922;2023-08-20T04:54:36;20.57;;;15.80;;
2404;SDS011;1213;43.206;27.922;2023-08-20T04:57:02;22.93;;;15.13;;
2404;SDS011;1213;43.206;27.922;2023-08-20T04:59:27;23.30;;;13.70;;
2404;SDS011;1213;43.206;27.922;2023-08-20T05:01:52;13.93;;;11.37;;
2404;SDS011;1213;43.206;27.922;2023-08-20T05:04:18;12.90;;;9.90;;
2404;SDS011;1213;43.206;27.922;2023-08-20T05:06:43;15.83;;;9.27;;
2404;SDS011;1213;43.206;27.922;2023-08-20T05:09:08;11.00;;;8.87;;
2404;SDS011;1213;43.206;27.922;2023-08-20T05:11:34;10.83;;;9.73;;
2404;SDS011;1213;43.206;27.922;2023-08-20T05:13:59;12.23;;;8.60;;
2404;SDS011;1213;43.206;27.922;2023-08-20T05:16:25;10.30;;;9.20;;
2404;SDS011;1213;43.206;27.922;2023-08-20T05:18:50;11.70;;;9.37;;
2404;SDS011;1213;43.206;27.922;2023-08-20T05:21:16;16.80;;;10.23;;
2404;SDS011;1213;43.206;27.922;2023-08-20T05:23:41;12.53;;;8.93;;
2404;SDS011;1213;43.206;27.922;2023-08-20T05:26:06;12.03;;;9.23;;
2404;SDS011;1213;43.206;27.922;2023-08-20T05:28:32;13.57;;;11.13;;
2404;SDS011;1213;43.206;27.922;2023-08-20T05:30:57;8.77;;;7.87;;
2404;SDS011;1213;43.206;27.922;2023-08-20T05:33:23;9.93;;;8.83;;
2404;SDS011;1213;43.206;27.922;2023-08-20T05:35:48;9.67;;;8.20;;
2404;SDS011;1213;43.206;27.922;2023-08-20T05:38:14;8.90;;;7.90;;
2404;SDS011;1213;43.206;27.922;2023-08-20T05:40:39;10.60;;;7.57;;
2404;SDS011;1213;43.206;27.922;2023-08-20T05:43:04;9.80;;;7.57;;
2404;SDS011;1213;43.206;27.922;2023-08-20T05:45:30;8.87;;;7.37;;
2404;SDS011;1213;43.206;27.922;2023-08-20T05:47:55;9.00;;;7.50;;
2404;SDS011;1213;43.206;27.922;2023-08-20T05:50:20;8.43;;;7.70;;
2404;SDS011;1213;43.206;27.922;2023-08-20T05:52:46;8.10;;;6.20;;
2404;SDS011;1213;43.206;27.922;2023-08-20T05:55:11;10.73;;;7.00;;
2404;SDS011;1213;43.206;27.922;2023-08-20T05:57:36;9.00;;;6.93;;
2404;SDS011;1213;43.206;27.922;2023-08-20T06:00:03;9.00;;;7.23;;
2404;SDS011;1213;43.206;27.922;2023-08-20T06:02:29;9.10;;;6.57;;
2404;SDS011;1213;43.206;27.922;2023-08-20T06:04:54;7.50;;;6.70;;
2404;SDS011;1213;43.206;27.922;2023-08-20T06:07:20;8.90;;;7.17;;
2404;SDS011;1213;43.206;27.922;2023-08-20T06:09:45;8.13;;;6.90;;
2404;SDS011;1213;43.206;27.922;2023-08-20T06:12:11;10.30;;;7.60;;
2404;SDS011;1213;43.206;27.922;2023-08-20T06:14:36;8.07;;;6.83;;
2404;SDS011;1213;43.206;27.922;2023-08-20T06:17:01;8.13;;;7.33;;
2404;SDS011;1213;43.206;27.922;2023-08-20T06:19:27;11.67;;;6.93;;
2404;SDS011;1213;43.206;27.922;2023-08-20T06:21:52;7.30;;;6.60;;
2404;SDS011;1213;43.206;27.922;2023-08-20T06:24:18;7.70;;;7.00;;
2404;SDS011;1213;43.206;27.922;2023-08-20T06:26:43;8.13;;;7.33;;
2404;SDS011;1213;43.206;27.922;2023-08-20T06:29:09;9.07;;;6.87;;
2404;SDS011;1213;43.206;27.922;2023-08-20T06:31:35;8.10;;;7.30;;
2404;SDS011;1213;43.206;27.922;2023-08-20T06:34:00;6.83;;;5.90;;
2404;SDS011;1213;43.206;27.922;2023-08-20T06:36:25;7.43;;;6.77;;
2404;SDS011;1213;43.206;27.922;2023-08-20T06:38:51;8.00;;;7.27;;
2404;SDS011;1213;43.206;27.922;2023-08-20T06:41:16;8.37;;;6.60;;
2404;SDS011;1213;43.206;27.922;2023-08-20T06:43:42;7.40;;;6.80;;
2404;SDS011;1213;43.206;27.922;2023-08-20T06:46:07;7.20;;;6.50;;
2404;SDS011;1213;43.206;27.922;2023-08-20T06:48:32;6.63;;;5.93;;
2404;SDS011;1213;43.206;27.922;2023-08-20T06:50:57;8.30;;;6.40;;
2404;SDS011;1213;43.206;27.922;2023-08-20T06:53:23;7.60;;;6.90;;
2404;SDS011;1213;43.206;27.922;2023-08-20T06:55:48;6.10;;;5.60;;
2404;SDS011;1213;43.206;27.922;2023-08-20T06:58:13;8.50;;;7.67;;
2404;SDS011;1213;43.206;27.922;2023-08-20T07:00:39;7.20;;;6.60;;
2404;SDS011;1213;43.206;27.922;2023-08-20T07:03:04;6.67;;;6.10;;
2404;SDS011;1213;43.206;27.922;2023-08-20T07:05:29;7.70;;;7.03;;
2404;SDS011;1213;43.206;27.922;2023-08-20T07:07:54;7.30;;;6.60;;
2404;SDS011;1213;43.206;27.922;2023-08-20T07:10:20;7.87;;;6.60;;
2404;SDS011;1213;43.206;27.922;2023-08-20T07:12:45;8.07;;;6.47;;
2404;SDS011;1213;43.206;27.922;2023-08-20T07:15:10;7.90;;;5.80;;
2404;SDS011;1213;43.206;27.922;2023-08-20T07:17:36;7.93;;;5.83;;
2404;SDS011;1213;43.206;27.922;2023-08-20T07:20:01;11.50;;;6.70;;
2404;SDS011;1213;43.206;27.922;2023-08-20T07:22:28;7.60;;;6.83;;
2404;SDS011;1213;43.206;27.922;2023-08-20T07:24:53;6.80;;;6.20;;
2404;SDS011;1213;43.206;27.922;2023-08-20T07:27:18;7.50;;;6.77;;
2404;SDS011;1213;43.206;27.922;2023-08-20T07:29:43;6.70;;;6.00;;
2404;SDS011;1213;43.206;27.922;2023-08-20T07:32:09;6.70;;;6.17;;
2404;SDS011;1213;43.206;27.922;2023-08-20T07:34:34;7.00;;;6.37;;
2404;SDS011;1213;43.206;27.922;2023-08-20T07:37:00;6.77;;;6.17;;
2404;SDS011;1213;43.206;27.922;2023-08-20T07:39:25;6.63;;;6.03;;
2404;SDS011;1213;43.206;27.922;2023-08-20T07:41:50;9.27;;;6.43;;
2404;SDS011;1213;43.206;27.922;2023-08-20T07:44:16;7.43;;;6.73;;
2404;SDS011;1213;43.206;27.922;2023-08-20T07:46:41;6.73;;;6.13;;
2404;SDS011;1213;43.206;27.922;2023-08-20T07:49:06;8.80;;;7.53;;
2404;SDS011;1213;43.206;27.922;2023-08-20T07:51:32;9.23;;;6.80;;
2404;SDS011;1213;43.206;27.922;2023-08-20T07:53:57;6.50;;;5.90;;
2404;SDS011;1213;43.206;27.922;2023-08-20T07:56:24;8.00;;;7.20;;
2404;SDS011;1213;43.206;27.922;2023-08-20T07:58:49;8.93;;;7.10;;
2404;SDS011;1213;43.206;27.922;2023-08-20T08:01:15;9.00;;;6.67;;
2404;SDS011;1213;43.206;27.922;2023-08-20T08:03:41;7.80;;;7.10;;
2404;SDS011;1213;43.206;27.922;2023-08-20T08:06:07;8.20;;;6.93;;
2404;SDS011;1213;43.206;27.922;2023-08-20T08:08:32;7.30;;;6.60;;
2404;SDS011;1213;43.206;27.922;2023-08-20T08:10:57;8.27;;;7.40;;
2404;SDS011;1213;43.206;27.922;2023-08-20T08:13:23;8.00;;;7.20;;
2404;SDS011;1213;43.206;27.922;2023-08-20T08:15:48;7.57;;;6.80;;
2404;SDS011;1213;43.206;27.922;2023-08-20T08:18:14;8.77;;;7.53;;
2404;SDS011;1213;43.206;27.922;2023-08-20T08:20:39;8.43;;;7.63;;
2404;SDS011;1213;43.206;27.922;2023-08-20T08:23:05;7.00;;;6.40;;
2404;SDS011;1213;43.206;27.922;2023-08-20T08:25:30;7.70;;;7.00;;
2404;SDS011;1213;43.206;27.922;2023-08-20T08:27:55;7.37;;;6.67;;
2404;SDS011;1213;43.206;27.922;2023-08-20T08:30:21;8.20;;;7.40;;
2404;SDS011;1213;43.206;27.922;2023-08-20T08:32:46;8.00;;;7.00;;
2404;SDS011;1213;43.206;27.922;2023-08-20T08:35:11;9.70;;;7.70;;
2404;SDS011;1213;43.206;27.922;2023-08-20T08:37:37;11.30;;;7.70;;
2404;SDS011;1213;43.206;27.922;2023-08-20T08:40:02;8.43;;;6.93;;
2404;SDS011;1213;43.206;27.922;2023-08-20T08:42:30;8.30;;;7.00;;
2404;SDS011;1213;43.206;27.922;2023-08-20T08:44:56;8.37;;;7.57;;
2404;SDS011;1213;43.206;27.922;2023-08-20T08:47:22;11.57;;;8.57;;
2404;SDS011;1213;43.206;27.922;2023-08-20T08:49:48;10.33;;;7.23;;
2404;SDS011;1213;43.206;27.922;2023-08-20T08:52:14;7.37;;;6.77;;
2404;SDS011;1213;43.206;27.922;2023-08-20T08:54:40;7.70;;;6.90;;
2404;SDS011;1213;43.206;27.922;2023-08-20T08:57:05;10.63;;;6.90;;
2404;SDS011;1213;43.206;27.922;2023-08-20T08:59:31;8.30;;;7.50;;
2404;SDS011;1213;43.206;27.922;2023-08-20T09:01:56;10.20;;;7.77;;
2404;SDS011;1213;43.206;27.922;2023-08-20T09:04:22;8.73;;;7.20;;
2404;SDS011;1213;43.206;27.922;2023-08-20T09:06:51;7.83;;;7.00;;
2404;SDS011;1213;43.206;27.922;2023-08-20T09:09:17;8.53;;;7.83;;
2404;SDS011;1213;43.206;27.922;2023-08-20T09:11:43;9.53;;;8.53;;
2404;SDS011;1213;43.206;27.922;2023-08-20T09:16:52;9.80;;;8.33;;
2404;SDS011;1213;43.206;27.922;2023-08-20T09:19:18;8.57;;;7.87;;
2404;SDS011;1213;43.206;27.922;2023-08-20T09:21:45;10.10;;;8.60;;
2404;SDS011;1213;43.206;27.922;2023-08-20T09:24:11;8.43;;;7.70;;
2404;SDS011;1213;43.206;27.922;2023-08-20T09:26:37;9.17;;;8.27;;
2404;SDS011;1213;43.206;27.922;2023-08-20T09:29:02;13.63;;;7.63;;
2404;SDS011;1213;43.206;27.922;2023-08-20T09:31:37;10.90;;;7.87;;
2404;SDS011;1213;43.206;27.922;2023-08-20T09:34:03;11.10;;;8.03;;
2404;SDS011;1213;43.206;27.922;2023-08-20T09:36:30;12.40;;;10.50;;
2404;SDS011;1213;43.206;27.922;2023-08-20T09:38:56;7.67;;;6.80;;
2404;SDS011;1213;43.206;27.922;2023-08-20T09:41:21;11.77;;;7.60;;
2404;SDS011;1213;43.206;27.922;2023-08-20T09:43:47;9.10;;;7.13;;
2404;SDS011;1213;43.206;27.922;2023-08-20T09:46:13;11.53;;;7.20;;
2404;SDS011;1213;43.206;27.922;2023-08-20T09:48:40;8.40;;;7.13;;
2404;SDS011;1213;43.206;27.922;2023-08-20T09:51:10;7.17;;;6.57;;
2404;SDS011;1213;43.206;27.922;2023-08-20T09:53:37;14.17;;;7.70;;
2404;SDS011;1213;43.206;27.922;2023-08-20T09:56:27;6.77;;;6.17;;
2404;SDS011;1213;43.206;27.922;2023-08-20T09:58:49;6.80;;;6.20;;
2404;SDS011;1213;43.206;27.922;2023-08-20T10:01:15;8.30;;;5.60;;
2404;SDS011;1213;43.206;27.922;2023-08-20T10:03:41;7.80;;;6.30;;
2404;SDS011;1213;43.206;27.922;2023-08-20T10:06:06;6.50;;;6.00;;
2404;SDS011;1213;43.206;27.922;2023-08-20T10:08:32;9.67;;;7.33;;
2404;SDS011;1213;43.206;27.922;2023-08-20T10:10:58;8.30;;;6.70;;
2404;SDS011;1213;43.206;27.922;2023-08-20T10:13:23;9.77;;;6.10;;
2404;SDS011;1213;43.206;27.922;2023-08-20T10:15:49;6.77;;;6.13;;
2404;SDS011;1213;43.206;27.922;2023-08-20T10:18:15;6.37;;;5.77;;
2404;SDS011;1213;43.206;27.922;2023-08-20T10:20:40;6.87;;;5.47;;
2404;SDS011;1213;43.206;27.922;2023-08-20T10:23:05;6.87;;;6.17;;
2404;SDS011;1213;43.206;27.922;2023-08-20T10:25:31;7.60;;;6.00;;
2404;SDS011;1213;43.206;27.922;2023-08-20T10:28:11;5.60;;;5.20;;
2404;SDS011;1213;43.206;27.922;2023-08-20T10:30:38;7.10;;;6.40;;
2404;SDS011;1213;43.206;27.922;2023-08-20T10:33:03;7.10;;;6.10;;
2404;SDS011;1213;43.206;27.922;2023-08-20T10:38:11;8.93;;;5.20;;
2404;SDS011;1213;43.206;27.922;2023-08-20T10:40:58;6.23;;;5.63;;
2404;SDS011;1213;43.206;27.922;2023-08-20T10:48:56;4.73;;;4.33;;
2404;SDS011;1213;43.206;27.922;2023-08-20T10:51:26;9.20;;;6.87;;
2404;SDS011;1213;43.206;27.922;2023-08-20T10:59:07;6.37;;;4.53;;
2404;SDS011;1213;43.206;27.922;2023-08-20T11:01:33;5.53;;;5.03;;
2404;SDS011;1213;43.206;27.922;2023-08-20T11:03:58;5.20;;;4.80;;
2404;SDS011;1213;43.206;27.922;2023-08-20T11:06:25;5.70;;;5.10;;
2404;SDS011;1213;43.206;27.922;2023-08-20T11:08:55;6.13;;;5.50;;
2404;SDS011;1213;43.206;27.922;2023-08-20T11:11:21;5.33;;;4.93;;
2404;SDS011;1213;43.206;27.922;2023-08-20T11:13:47;6.50;;;5.40;;
2404;SDS011;1213;43.206;27.922;2023-08-20T11:16:12;9.70;;;5.80;;
2404;SDS011;1213;43.206;27.922;2023-08-20T11:18:38;5.33;;;4.83;;
2404;SDS011;1213;43.206;27.922;2023-08-20T11:21:03;6.83;;;5.30;;
2404;SDS011;1213;43.206;27.922;2023-08-20T11:23:28;5.10;;;4.53;;
2404;SDS011;1213;43.206;27.922;2023-08-20T11:25:54;7.87;;;5.13;;
2404;SDS011;1213;43.206;27.922;2023-08-20T11:28:20;6.53;;;5.90;;
2404;SDS011;1213;43.206;27.922;2023-08-20T11:30:46;5.70;;;5.20;;
2404;SDS011;1213;43.206;27.922;2023-08-20T11:33:11;7.40;;;6.13;;
2404;SDS011;1213;43.206;27.922;2023-08-20T11:35:37;8.20;;;5.87;;
2404;SDS011;1213;43.206;27.922;2023-08-20T11:38:02;10.17;;;7.00;;
2404;SDS011;1213;43.206;27.922;2023-08-20T11:40:28;10.13;;;5.30;;
2404;SDS011;1213;43.206;27.922;2023-08-20T11:42:53;5.03;;;4.60;;
2404;SDS011;1213;43.206;27.922;2023-08-20T11:45:19;7.80;;;5.30;;
2404;SDS011;1213;43.206;27.922;2023-08-20T11:47:44;5.23;;;4.83;;
2404;SDS011;1213;43.206;27.922;2023-08-20T11:50:09;5.90;;;5.13;;
2404;SDS011;1213;43.206;27.922;2023-08-20T11:52:35;8.60;;;6.73;;
2404;SDS011;1213;43.206;27.922;2023-08-20T11:55:00;5.43;;;4.70;;
2404;SDS011;1213;43.206;27.922;2023-08-20T11:57:26;8.77;;;4.73;;
2404;SDS011;1213;43.206;27.922;2023-08-20T11:59:53;4.70;;;4.30;;
2404;SDS011;1213;43.206;27.922;2023-08-20T12:02:24;4.70;;;4.20;;
2404;SDS011;1213;43.206;27.922;2023-08-20T12:04:50;5.10;;;4.70;;
2404;SDS011;1213;43.206;27.922;2023-08-20T12:07:15;5.43;;;5.03;;
2404;SDS011;1213;43.206;27.922;2023-08-20T12:09:41;4.50;;;4.20;;
2404;SDS011;1213;43.206;27.922;2023-08-20T12:12:07;4.87;;;4.47;;
2404;SDS011;1213;43.206;27.922;2023-08-20T12:14:32;5.27;;;4.50;;
2404;SDS011;1213;43.206;27.922;2023-08-20T12:16:58;4.70;;;4.07;;
2404;SDS011;1213;43.206;27.922;2023-08-20T12:19:23;5.00;;;4.50;;
2404;SDS011;1213;43.206;27.922;2023-08-20T12:21:48;5.27;;;4.77;;
2404;SDS011;1213;43.206;27.922;2023-08-20T12:24:14;7.87;;;5.10;;
2404;SDS011;1213;43.206;27.922;2023-08-20T12:26:39;4.50;;;4.10;;
2404;SDS011;1213;43.206;27.922;2023-08-20T12:29:05;6.27;;;5.20;;
2404;SDS011;1213;43.206;27.922;2023-08-20T12:31:31;6.23;;;5.17;;
2404;SDS011;1213;43.206;27.922;2023-08-20T12:33:56;5.43;;;5.00;;
2404;SDS011;1213;43.206;27.922;2023-08-20T12:36:22;6.40;;;5.90;;
2404;SDS011;1213;43.206;27.922;2023-08-20T12:38:47;7.23;;;5.20;;
2404;SDS011;1213;43.206;27.922;2023-08-20T12:41:12;5.80;;;4.60;;
2404;SDS011;1213;43.206;27.922;2023-08-20T12:43:37;6.50;;;6.00;;
2404;SDS011;1213;43.206;27.922;2023-08-20T12:46:03;5.50;;;5.00;;
2404;SDS011;1213;43.206;27.922;2023-08-20T12:48:28;5.40;;;4.90;;
2404;SDS011;1213;43.206;27.922;2023-08-20T12:50:54;6.30;;;5.70;;
2404;SDS011;1213;43.206;27.922;2023-08-20T12:53:19;8.93;;;4.93;;
2404;SDS011;1213;43.206;27.922;2023-08-20T12:55:46;5.43;;;4.93;;
2404;SDS011;1213;43.206;27.922;2023-08-20T12:58:11;9.30;;;5.33;;
2404;SDS011;1213;43.206;27.922;2023-08-20T13:00:37;6.17;;;5.50;;
2404;SDS011;1213;43.206;27.922;2023-08-20T13:03:02;8.00;;;6.00;;
2404;SDS011;1213;43.206;27.922;2023-08-20T13:05:28;5.70;;;5.20;;
2404;SDS011;1213;43.206;27.922;2023-08-20T13:07:53;5.87;;;5.03;;
2404;SDS011;1213;43.206;27.922;2023-08-20T13:10:19;5.40;;;4.90;;
2404;SDS011;1213;43.206;27.922;2023-08-20T13:12:48;5.27;;;4.77;;
2404;SDS011;1213;43.206;27.922;2023-08-20T13:15:15;5.03;;;4.63;;
2404;SDS011;1213;43.206;27.922;2023-08-20T13:17:41;6.37;;;5.33;;
2404;SDS011;1213;43.206;27.922;2023-08-20T13:20:06;6.73;;;5.50;;
2404;SDS011;1213;43.206;27.922;2023-08-20T13:22:33;6.20;;;5.00;;
2404;SDS011;1213;43.206;27.922;2023-08-20T13:24:58;10.00;;;5.80;;
2404;SDS011;1213;43.206;27.922;2023-08-20T13:27:23;5.73;;;5.23;;
2404;SDS011;1213;43.206;27.922;2023-08-20T13:29:49;5.77;;;5.20;;
2404;SDS011;1213;43.206;27.922;2023-08-20T13:32:14;5.50;;;5.10;;
2404;SDS011;1213;43.206;27.922;2023-08-20T13:34:40;5.30;;;4.90;;
2404;SDS011;1213;43.206;27.922;2023-08-20T13:37:06;6.23;;;5.63;;
2404;SDS011;1213;43.206;27.922;2023-08-20T13:39:31;6.30;;;5.70;;
2404;SDS011;1213;43.206;27.922;2023-08-20T13:41:56;6.40;;;5.80;;
2404;SDS011;1213;43.206;27.922;2023-08-20T13:44:22;8.80;;;6.60;;
2404;SDS011;1213;43.206;27.922;2023-08-20T13:46:47;7.00;;;6.30;;
2404;SDS011;1213;43.206;27.922;2023-08-20T13:49:12;7.93;;;7.10;;
2404;SDS011;1213;43.206;27.922;2023-08-20T13:51:37;7.30;;;6.70;;
2404;SDS011;1213;43.206;27.922;2023-08-20T13:54:03;5.83;;;5.23;;
2404;SDS011;1213;43.206;27.922;2023-08-20T13:56:28;7.43;;;5.40;;
2404;SDS011;1213;43.206;27.922;2023-08-20T13:58:53;7.60;;;6.10;;
2404;SDS011;1213;43.206;27.922;2023-08-20T14:01:19;7.27;;;5.37;;
2404;SDS011;1213;43.206;27.922;2023-08-20T14:03:44;6.50;;;5.90;;
2404;SDS011;1213;43.206;27.922;2023-08-20T14:06:09;6.67;;;6.07;;
2404;SDS011;1213;43.206;27.922;2023-08-20T14:08:34;6.70;;;6.00;;
2404;SDS011;1213;43.206;27.922;2023-08-20T14:11:00;7.40;;;5.90;;
2404;SDS011;1213;43.206;27.922;2023-08-20T14:13:25;7.60;;;6.90;;
2404;SDS011;1213;43.206;27.922;2023-08-20T14:15:50;11.20;;;6.40;;
2404;SDS011;1213;43.206;27.922;2023-08-20T14:18:15;6.20;;;5.60;;
2404;SDS011;1213;43.206;27.922;2023-08-20T14:20:41;6.20;;;5.57;;
2404;SDS011;1213;43.206;27.922;2023-08-20T14:23:06;8.70;;;5.50;;
2404;SDS011;1213;43.206;27.922;2023-08-20T14:25:31;9.50;;;6.17;;
2404;SDS011;1213;43.206;27.922;2023-08-20T14:27:57;8.00;;;6.30;;
2404;SDS011;1213;43.206;27.922;2023-08-20T14:30:22;6.83;;;5.67;;
2404;SDS011;1213;43.206;27.922;2023-08-20T14:32:47;6.50;;;5.90;;
2404;SDS011;1213;43.206;27.922;2023-08-20T14:35:13;7.67;;;6.93;;
2404;SDS011;1213;43.206;27.922;2023-08-20T14:37:38;6.67;;;5.97;;
2404;SDS011;1213;43.206;27.922;2023-08-20T14:40:04;8.57;;;6.40;;
2404;SDS011;1213;43.206;27.922;2023-08-20T14:42:32;7.30;;;6.53;;
2404;SDS011;1213;43.206;27.922;2023-08-20T14:44:58;10.47;;;7.30;;
2404;SDS011;1213;43.206;27.922;2023-08-20T14:47:23;7.97;;;6.90;;
2404;SDS011;1213;43.206;27.922;2023-08-20T14:49:48;10.33;;;6.67;;
2404;SDS011;1213;43.206;27.922;2023-08-20T14:52:14;6.87;;;6.27;;
2404;SDS011;1213;43.206;27.922;2023-08-20T14:54:39;11.33;;;6.70;;
2404;SDS011;1213;43.206;27.922;2023-08-20T14:57:06;6.43;;;5.93;;
2404;SDS011;1213;43.206;27.922;2023-08-20T14:59:32;6.17;;;5.57;;
2404;SDS011;1213;43.206;27.922;2023-08-20T15:01:57;7.20;;;5.80;;
2404;SDS011;1213;43.206;27.922;2023-08-20T15:04:22;6.30;;;5.80;;
2404;SDS011;1213;43.206;27.922;2023-08-20T15:06:48;10.63;;;5.90;;
2404;SDS011;1213;43.206;27.922;2023-08-20T15:09:13;10.67;;;7.10;;
2404;SDS011;1213;43.206;27.922;2023-08-20T15:11:40;8.57;;;6.83;;